createdAt,value
2023-03-26T00:02:43.525Z,7.30
2023-03-26T00:05:48.332Z,5.97
2023-03-26T00:08:50.778Z,8.27
2023-03-26T00:11:52.622Z,6.38
2023-03-26T00:14:54.384Z,7.43
2023-03-26T00:17:56.442Z,4.57
2023-03-26T00:21:00.398Z,5.80
2023-03-26T00:24:07.595Z,7.47
2023-03-26T00:27:10.421Z,4.97
2023-03-26T00:30:13.023Z,6.07
2023-03-26T00:33:22.349Z,5.70
2023-03-26T00:36:27.235Z,6.03
2023-03-26T00:39:33.675Z,5.50
2023-03-26T00:42:36.980Z,7.13
2023-03-26T00:45:39.749Z,6.60
2023-03-26T00:48:45.781Z,4.68
2023-03-26T00:51:49.424Z,5.93
2023-03-26T00:54:52.232Z,5.43
2023-03-26T00:57:56.051Z,7.68
2023-03-26T01:01:00.870Z,8.98
2023-03-26T01:04:28.708Z,11.25
2023-03-26T01:07:31.083Z,10.80
2023-03-26T01:10:39.238Z,9.10
2023-03-26T01:13:49.711Z,7.40
2023-03-26T01:17:01.663Z,9.27
2023-03-26T01:20:15.058Z,10.10
2023-03-26T01:23:30.850Z,9.02
2023-03-26T01:27:04.638Z,9.02
2023-03-26T01:30:24.921Z,6.97
2023-03-26T01:33:59.445Z,5.60
2023-03-26T01:37:13.296Z,6.03
2023-03-26T01:40:23.698Z,5.97
2023-03-26T01:43:36.562Z,4.80
2023-03-26T01:46:39.959Z,6.53
2023-03-26T01:49:42.728Z,4.45
2023-03-26T01:52:45.724Z,8.15
2023-03-26T01:55:57.051Z,5.75
2023-03-26T01:59:54.116Z,3.75
2023-03-26T02:03:08.821Z,4.45
2023-03-26T02:06:34.905Z,3.45
2023-03-26T02:09:46.347Z,4.28
2023-03-26T02:12:50.389Z,3.60
2023-03-26T02:16:01.791Z,7.45
2023-03-26T02:19:04.994Z,6.60
2023-03-26T02:22:11.171Z,5.25
2023-03-26T02:25:20.480Z,4.88
2023-03-26T02:28:24.864Z,3.38
2023-03-26T02:31:28.315Z,3.42
2023-03-26T02:34:31.699Z,5.53
2023-03-26T02:37:34.899Z,9.23
2023-03-26T02:40:45.848Z,4.50
2023-03-26T02:43:48.520Z,6.70
2023-03-26T02:46:54.320Z,6.75
2023-03-26T02:50:17.261Z,8.48
2023-03-26T02:53:46.569Z,8.77
2023-03-26T02:57:01.667Z,7.95
2023-03-26T03:00:30.556Z,8.20
2023-03-26T03:07:00.533Z,5.72
2023-03-26T03:10:03.565Z,5.63
2023-03-26T03:13:25.740Z,6.28
2023-03-26T03:16:29.161Z,4.88
2023-03-26T03:19:34.343Z,4.70
2023-03-26T03:22:36.465Z,4.15
2023-03-26T03:25:44.029Z,5.30
2023-03-26T03:28:45.855Z,4.25
2023-03-26T03:31:50.554Z,5.32
2023-03-26T03:35:10.629Z,4.63
2023-03-26T03:38:13.176Z,5.75
2023-03-26T03:41:22.305Z,4.40
2023-03-26T03:44:24.043Z,3.75
2023-03-26T03:47:26.957Z,4.40
2023-03-26T03:50:29.548Z,3.90
2023-03-26T03:53:51.261Z,5.68
2023-03-26T03:57:06.421Z,5.47
2023-03-26T04:00:20.168Z,4.97
2023-03-26T04:03:38.783Z,4.90
2023-03-26T04:06:46.148Z,7.93
2023-03-26T04:09:50.805Z,7.40
2023-03-26T04:12:56.372Z,8.00
2023-03-26T04:16:17.984Z,9.27
2023-03-26T04:19:20.266Z,9.93
2023-03-26T04:22:24.094Z,11.88
2023-03-26T04:25:33.769Z,8.98
2023-03-26T04:28:51.059Z,11.77
2023-03-26T04:32:07.173Z,9.73
2023-03-26T04:35:15.057Z,8.23
2023-03-26T04:38:21.756Z,9.68
2023-03-26T04:41:27.427Z,10.68
2023-03-26T04:44:37.672Z,8.40
2023-03-26T04:47:46.920Z,9.23
2023-03-26T04:50:49.973Z,8.00
2023-03-26T04:53:58.838Z,8.25
2023-03-26T04:57:09.132Z,8.48
2023-03-26T05:00:19.153Z,6.97
2023-03-26T05:03:32.589Z,7.88
2023-03-26T05:06:43.089Z,9.50
2023-03-26T05:09:54.553Z,8.55
2023-03-26T05:13:28.619Z,9.07
2023-03-26T05:16:35.311Z,7.15
2023-03-26T05:19:42.692Z,8.55
2023-03-26T05:22:45.048Z,6.60
2023-03-26T05:25:57.690Z,8.40
2023-03-26T05:29:03.009Z,12.05
2023-03-26T05:32:11.876Z,9.32
2023-03-26T05:35:17.630Z,9.77
2023-03-26T05:38:20.717Z,13.32
2023-03-26T05:41:23.029Z,9.55
2023-03-26T05:44:26.700Z,13.45
2023-03-26T05:47:29.112Z,9.32
2023-03-26T05:50:31.780Z,7.55
2023-03-26T05:53:35.585Z,10.00
2023-03-26T05:56:57.338Z,8.13
2023-03-26T06:00:22.067Z,7.45
2023-03-26T06:03:26.672Z,6.93
2023-03-26T06:06:45.362Z,7.28
2023-03-26T06:09:47.813Z,6.75
2023-03-26T06:12:51.058Z,6.35
2023-03-26T06:15:55.057Z,9.10
2023-03-26T06:19:02.593Z,6.10
2023-03-26T06:22:22.178Z,7.70
2023-03-26T06:25:46.745Z,16.95
2023-03-26T06:29:08.233Z,15.60
2023-03-26T06:32:23.149Z,13.30
2023-03-26T06:35:37.921Z,11.88
2023-03-26T06:38:40.883Z,6.95
2023-03-26T06:41:44.608Z,7.70
2023-03-26T06:44:57.369Z,7.20
2023-03-26T06:48:10.453Z,5.13
2023-03-26T06:51:40.773Z,4.53
2023-03-26T06:55:15.500Z,6.00
2023-03-26T06:58:36.890Z,7.85
2023-03-26T07:01:57.582Z,5.63
2023-03-26T07:05:18.420Z,6.28
2023-03-26T07:08:38.839Z,5.70
2023-03-26T07:12:06.792Z,6.68
2023-03-26T07:15:29.032Z,6.28
2023-03-26T07:18:54.474Z,10.38
2023-03-26T07:21:59.739Z,7.15
2023-03-26T07:25:34.116Z,7.55
2023-03-26T07:29:05.118Z,9.88
2023-03-26T07:32:38.149Z,9.55
2023-03-26T07:36:15.938Z,11.43
2023-03-26T07:40:09.468Z,14.00
2023-03-26T07:43:46.318Z,12.15
2023-03-26T07:47:05.329Z,12.35
2023-03-26T07:50:08.934Z,11.18
2023-03-26T07:53:39.823Z,13.25
2023-03-26T07:57:20.463Z,11.10
2023-03-26T08:01:14.981Z,12.27
2023-03-26T08:04:30.374Z,12.88
2023-03-26T08:08:07.410Z,12.15
2023-03-26T08:11:30.121Z,12.23
2023-03-26T08:14:55.503Z,10.50
2023-03-26T08:18:14.707Z,13.77
2023-03-26T08:21:26.748Z,13.68
2023-03-26T08:24:47.669Z,12.93
2023-03-26T08:28:29.789Z,9.55
2023-03-26T08:31:35.624Z,11.23
2023-03-26T08:34:38.765Z,9.88
2023-03-26T08:37:41.307Z,8.32
2023-03-26T08:41:15.182Z,9.73
2023-03-26T08:44:48.306Z,11.05
2023-03-26T08:48:16.056Z,10.68
2023-03-26T08:51:37.493Z,10.82
2023-03-26T08:54:49.511Z,13.07
2023-03-26T08:58:17.886Z,10.95
2023-03-26T09:01:20.622Z,8.25
2023-03-26T09:04:49.919Z,10.95
2023-03-26T09:08:10.868Z,9.98
2023-03-26T09:11:44.828Z,16.20
2023-03-26T09:15:07.103Z,11.55
2023-03-26T09:18:28.151Z,13.20
2023-03-26T09:21:48.984Z,14.75
2023-03-26T09:25:08.791Z,12.07
2023-03-26T09:28:22.678Z,10.75
2023-03-26T09:31:49.034Z,13.68
2023-03-26T09:35:12.646Z,10.73
2023-03-26T09:38:36.982Z,9.95
2023-03-26T09:41:55.475Z,9.13
2023-03-26T09:45:20.327Z,9.65
2023-03-26T09:48:25.560Z,12.50
2023-03-26T09:51:37.720Z,10.07
2023-03-26T09:54:44.547Z,9.20
2023-03-26T09:58:20.346Z,12.48
2023-03-26T10:01:32.709Z,9.52
2023-03-26T10:04:41.604Z,10.40
2023-03-26T10:08:21.858Z,11.07
2023-03-26T10:11:35.171Z,11.63
2023-03-26T10:15:32.002Z,9.40
2023-03-26T10:19:00.955Z,10.98
2023-03-26T10:22:09.848Z,10.70
2023-03-26T10:25:23.780Z,11.90
2023-03-26T10:28:25.519Z,15.57
2023-03-26T10:32:01.129Z,10.00
2023-03-26T10:35:22.553Z,13.60
2023-03-26T10:38:25.834Z,11.02
2023-03-26T10:41:45.138Z,10.20
2023-03-26T10:45:27.096Z,9.65
2023-03-26T10:49:04.384Z,9.68
2023-03-26T10:52:16.848Z,12.23
2023-03-26T10:55:46.906Z,12.95
2023-03-26T10:58:50.391Z,8.55
2023-03-26T11:01:59.294Z,8.73
2023-03-26T11:05:16.602Z,9.25
2023-03-26T11:08:32.246Z,8.15
2023-03-26T11:12:25.679Z,6.68
2023-03-26T11:15:42.930Z,9.35
2023-03-26T11:18:54.195Z,8.40
2023-03-26T11:22:17.712Z,6.20
2023-03-26T11:25:33.105Z,6.10
2023-03-26T11:29:31.347Z,6.28
2023-03-26T11:32:45.547Z,7.15
2023-03-26T11:35:51.256Z,6.43
2023-03-26T11:39:00.048Z,5.95
2023-03-26T11:42:14.128Z,5.45
2023-03-26T11:45:25.196Z,5.68
2023-03-26T11:48:40.794Z,7.15
2023-03-26T11:51:45.746Z,8.48
2023-03-26T11:54:51.042Z,7.05
2023-03-26T11:58:00.016Z,7.25
2023-03-26T12:01:17.337Z,6.38
2023-03-26T12:04:34.018Z,7.13
2023-03-26T12:07:35.894Z,6.90
2023-03-26T12:10:43.268Z,6.43
2023-03-26T12:13:58.514Z,5.35
2023-03-26T12:17:08.831Z,5.75
2023-03-26T12:20:33.892Z,6.35
2023-03-26T12:23:38.752Z,4.65
2023-03-26T12:26:46.328Z,5.00
2023-03-26T12:30:00.177Z,5.45
2023-03-26T12:33:20.469Z,4.82
2023-03-26T12:36:36.852Z,6.75
2023-03-26T12:40:07.852Z,4.20
2023-03-26T12:44:55.981Z,5.07
2023-03-26T12:47:58.583Z,5.82
2023-03-26T12:51:07.169Z,6.68
2023-03-26T12:54:19.254Z,6.03
2023-03-26T12:57:30.652Z,7.28
2023-03-26T13:01:09.596Z,4.75
2023-03-26T13:04:37.588Z,5.10
2023-03-26T13:07:59.097Z,6.10
2023-03-26T13:11:01.828Z,4.53
2023-03-26T13:14:31.903Z,7.22
2023-03-26T13:17:46.572Z,6.68
2023-03-26T13:20:57.955Z,6.20
2023-03-26T13:24:09.972Z,5.65
2023-03-26T13:27:18.662Z,5.40
2023-03-26T13:31:04.354Z,7.53
2023-03-26T13:34:41.328Z,5.75
2023-03-26T13:37:59.318Z,6.60
2023-03-26T13:41:23.809Z,6.53
2023-03-26T13:44:46.499Z,6.95
2023-03-26T13:47:52.572Z,7.00
2023-03-26T13:51:18.325Z,6.97
2023-03-26T13:54:46.074Z,7.15
2023-03-26T13:58:11.052Z,4.28
2023-03-26T14:01:33.843Z,6.85
2023-03-26T14:04:47.553Z,3.58
2023-03-26T14:07:57.387Z,2.65
2023-03-26T14:11:16.709Z,2.97
2023-03-26T14:14:29.038Z,2.08
2023-03-26T14:18:02.296Z,6.35
2023-03-26T14:21:14.084Z,2.22
2023-03-26T14:24:47.811Z,2.17
2023-03-26T14:28:10.882Z,3.45
2023-03-26T14:31:24.231Z,2.75
2023-03-26T14:34:49.777Z,1.35
2023-03-26T14:38:14.399Z,1.90
2023-03-26T14:41:25.670Z,3.42
2023-03-26T14:44:30.673Z,2.90
2023-03-26T14:48:11.935Z,2.25
2023-03-26T14:51:23.099Z,2.85
2023-03-26T14:54:29.172Z,3.55
2023-03-26T14:57:39.748Z,4.32
2023-03-26T15:00:48.592Z,1.80
2023-03-26T15:04:08.772Z,2.63
2023-03-26T15:07:57.763Z,2.25
2023-03-26T15:11:38.678Z,2.05
2023-03-26T15:15:13.441Z,2.03
2023-03-26T15:18:31.339Z,2.15
2023-03-26T15:21:52.897Z,1.70
2023-03-26T15:25:02.798Z,2.15
2023-03-26T15:28:30.580Z,1.83
2023-03-26T15:31:59.980Z,2.75
2023-03-26T15:38:33.309Z,6.25
2023-03-26T15:41:53.697Z,6.80
2023-03-26T15:45:27.138Z,3.38
2023-03-26T15:49:08.302Z,3.03
2023-03-26T15:52:32.370Z,3.78
2023-03-26T15:55:59.437Z,5.53
2023-03-26T15:59:33.071Z,3.95
2023-03-26T16:03:14.763Z,3.28
2023-03-26T16:06:36.023Z,2.92
2023-03-26T16:09:52.969Z,4.90
2023-03-26T16:13:23.486Z,9.68
2023-03-26T16:16:52.634Z,4.35
2023-03-26T16:20:33.390Z,4.25
2023-03-26T16:23:53.777Z,3.10
2023-03-26T16:27:15.689Z,2.55
2023-03-26T16:30:36.047Z,3.42
2023-03-26T16:33:47.975Z,3.85
2023-03-26T16:36:51.524Z,2.90
2023-03-26T16:39:54.240Z,2.05
2023-03-26T16:43:09.011Z,2.88
2023-03-26T16:46:12.081Z,2.55
2023-03-26T16:49:35.595Z,3.25
2023-03-26T16:53:18.110Z,8.30
2023-03-26T16:56:22.042Z,8.00
2023-03-26T16:59:46.082Z,6.28
2023-03-26T17:03:37.715Z,6.18
2023-03-26T17:06:49.614Z,7.03
2023-03-26T17:10:13.483Z,6.18
2023-03-26T17:13:28.866Z,4.63
2023-03-26T17:16:57.596Z,7.03
2023-03-26T17:20:14.587Z,5.35
2023-03-26T17:23:51.703Z,5.57
2023-03-26T17:27:05.019Z,4.05
2023-03-26T17:30:33.061Z,7.80
2023-03-26T17:33:38.953Z,8.50
2023-03-26T17:36:43.549Z,7.13
2023-03-26T17:39:47.690Z,10.50
2023-03-26T17:43:13.050Z,8.52
2023-03-26T17:46:45.995Z,8.82
2023-03-26T17:53:32.046Z,6.10
2023-03-26T17:56:37.677Z,4.45
2023-03-26T17:59:43.832Z,6.05
2023-03-26T18:02:54.683Z,7.55
2023-03-26T18:06:06.509Z,7.93
2023-03-26T18:09:12.153Z,8.90
2023-03-26T18:12:51.761Z,6.07
2023-03-26T18:16:16.400Z,6.97
2023-03-26T18:19:23.395Z,8.07
2023-03-26T18:22:28.493Z,5.13
2023-03-26T18:25:34.141Z,5.22
2023-03-26T18:28:42.213Z,7.75
2023-03-26T18:31:46.903Z,4.97
2023-03-26T18:34:56.978Z,4.32
2023-03-26T18:38:00.546Z,3.78
2023-03-26T18:41:04.435Z,5.60
2023-03-26T18:44:13.638Z,6.90
2023-03-26T18:47:16.722Z,7.32
2023-03-26T18:50:26.333Z,7.32
2023-03-26T18:53:36.186Z,6.13
2023-03-26T18:56:43.638Z,6.47
2023-03-26T18:59:51.133Z,6.90
2023-03-26T19:03:13.573Z,6.75
2023-03-26T19:06:16.094Z,7.05
2023-03-26T19:09:30.972Z,6.55
2023-03-26T19:12:36.244Z,9.63
2023-03-26T19:15:38.528Z,13.25
2023-03-26T19:18:44.097Z,8.88
2023-03-26T19:21:47.157Z,6.07
2023-03-26T19:24:55.620Z,5.88
2023-03-26T19:27:57.927Z,7.45
2023-03-26T19:31:09.818Z,9.48
2023-03-26T19:34:12.025Z,8.05
2023-03-26T19:37:29.230Z,6.30
2023-03-26T19:40:34.854Z,7.75
2023-03-26T19:43:37.155Z,6.10
2023-03-26T19:50:23.489Z,8.73
2023-03-26T19:51:18.508Z,9.02
2023-03-26T19:53:37.972Z,9.50
2023-03-26T19:56:41.248Z,11.80
2023-03-26T19:59:45.210Z,23.00
2023-03-26T20:02:53.235Z,28.92
2023-03-26T20:05:55.291Z,31.10
2023-03-26T20:08:57.970Z,28.08
2023-03-26T20:12:00.146Z,29.38
2023-03-26T20:15:03.391Z,30.42
2023-03-26T20:18:05.733Z,31.33
2023-03-26T20:21:13.052Z,32.15
2023-03-26T20:24:18.332Z,31.15
2023-03-26T20:27:21.109Z,40.97
2023-03-26T20:30:37.430Z,45.78
2023-03-26T20:33:40.778Z,40.50
2023-03-26T20:36:43.630Z,38.80
2023-03-26T20:39:46.917Z,30.58
2023-03-26T20:42:49.169Z,20.00
2023-03-26T20:45:52.599Z,20.63
2023-03-26T20:48:56.527Z,19.00
2023-03-26T20:52:00.674Z,17.35
2023-03-26T20:55:03.811Z,17.00
2023-03-26T20:58:06.662Z,19.30
2023-03-26T21:01:13.788Z,14.55
2023-03-26T21:04:17.654Z,15.57
2023-03-26T21:07:20.460Z,14.13
2023-03-26T21:10:26.060Z,16.88
2023-03-26T21:13:40.855Z,14.05
2023-03-26T21:16:44.198Z,13.38
2023-03-26T21:19:47.744Z,11.93
2023-03-26T21:23:12.086Z,12.48
2023-03-26T21:26:44.241Z,14.73
2023-03-26T21:29:46.717Z,22.17
2023-03-26T21:32:52.173Z,15.05
2023-03-26T21:35:57.205Z,21.40
2023-03-26T21:38:59.688Z,18.67
2023-03-26T21:42:05.205Z,18.48
2023-03-26T21:45:09.275Z,18.02
2023-03-26T21:48:12.695Z,16.10
2023-03-26T21:51:19.326Z,12.15
2023-03-26T21:54:24.433Z,10.77
2023-03-26T21:58:12.476Z,13.52
2023-03-26T22:01:24.532Z,11.57
2023-03-26T22:04:44.340Z,12.68
2023-03-26T22:07:59.278Z,14.18
2023-03-26T22:11:02.057Z,15.48
2023-03-26T22:14:05.098Z,10.63
2023-03-26T22:17:08.010Z,10.43
2023-03-26T22:20:15.297Z,11.65
2023-03-26T22:23:18.135Z,10.02
2023-03-26T22:26:23.725Z,14.20
2023-03-26T22:29:26.498Z,8.05
2023-03-26T22:32:32.806Z,6.53
2023-03-26T22:35:36.081Z,6.93
2023-03-26T22:38:40.921Z,11.60
2023-03-26T22:41:43.136Z,11.48
2023-03-26T22:44:46.596Z,7.22
2023-03-26T22:47:48.935Z,10.60
2023-03-26T22:50:59.770Z,9.57
2023-03-26T22:54:03.004Z,11.70
2023-03-26T22:57:06.319Z,16.15
2023-03-26T23:00:20.118Z,10.27
2023-03-26T23:03:35.314Z,10.45
2023-03-26T23:06:38.537Z,11.60
2023-03-26T23:09:41.306Z,10.80
2023-03-26T23:12:43.589Z,10.15
2023-03-26T23:15:49.067Z,13.18
2023-03-26T23:18:51.787Z,17.25
2023-03-26T23:21:54.094Z,11.20
2023-03-26T23:24:56.826Z,15.02
2023-03-26T23:27:59.321Z,11.77
2023-03-26T23:31:05.095Z,9.80
2023-03-26T23:34:08.504Z,12.75
2023-03-26T23:37:11.205Z,9.45
2023-03-26T23:40:14.639Z,11.80
2023-03-26T23:43:17.433Z,10.15
2023-03-26T23:46:24.036Z,11.27
2023-03-26T23:49:27.084Z,10.30
2023-03-26T23:52:31.057Z,7.40
2023-03-26T23:55:36.911Z,9.20
2023-03-26T23:58:40.372Z,10.18
